Time;durP1;ratioP1;P1;durP2;ratioP2;P2;SDS_P1;SDS_P2;PMS_P1;PMS_P2;Temp;Humidity;BMP_temperature;BMP_pressure;BME280_temperature;BME280_humidity;BME280_pressure;Samples;Min_cycle;Max_cycle;Signal;HPM_P1;HPM_P2
2021/04/04 00:00:11;;;;;;;46.23;7.90;;;;;;;;;;5072070;28;20023;-78
2021/04/04 00:02:37;;;;;;;24.27;6.20;;;;;;;;;;5075537;28;20016;-78
2021/04/04 00:05:03;;;;;;;28.67;6.20;;;;;;;;;;5075422;28;20020;-78
2021/04/04 00:07:28;;;;;;;23.03;5.97;;;;;;;;;;5076823;28;20023;-78
2021/04/04 00:09:53;;;;;;;23.03;5.83;;;;;;;;;;5076661;28;20016;-78
2021/04/04 00:12:18;;;;;;;24.23;7.13;;;;;;;;;;5075024;28;20361;-78
2021/04/04 00:14:44;;;;;;;33.43;6.17;;;;;;;;;;5076703;28;20027;-78
2021/04/04 00:17:09;;;;;;;23.30;6.03;;;;;;;;;;5074665;28;20079;-78
2021/04/04 00:19:34;;;;;;;26.83;6.70;;;;;;;;;;5074917;28;20023;-78
2021/04/04 00:22:00;;;;;;;25.00;6.17;;;;;;;;;;5074867;28;20024;-78
2021/04/04 00:24:25;;;;;;;21.73;5.40;;;;;;;;;;5076668;28;20048;-78
2021/04/04 00:26:50;;;;;;;25.17;5.63;;;;;;;;;;5075147;28;20020;-78
2021/04/04 00:29:15;;;;;;;36.60;4.40;;;;;;;;;;5075956;28;20017;-78
2021/04/04 00:31:40;;;;;;;15.10;4.47;;;;;;;;;;5076224;28;20024;-78
2021/04/04 00:34:06;;;;;;;32.13;6.43;;;;;;;;;;5074693;28;20388;-78
2021/04/04 00:36:31;;;;;;;27.73;5.00;;;;;;;;;;5074450;28;20058;-78
2021/04/04 00:38:56;;;;;;;27.33;4.90;;;;;;;;;;5074814;28;20372;-78
2021/04/04 00:41:22;;;;;;;19.67;4.60;;;;;;;;;;5075833;28;20013;-78
2021/04/04 00:43:47;;;;;;;20.07;4.00;;;;;;;;;;5074472;28;20016;-78
2021/04/04 00:46:12;;;;;;;19.83;4.73;;;;;;;;;;5075659;28;20028;-78
2021/04/04 00:48:37;;;;;;;25.50;4.40;;;;;;;;;;5076180;28;20017;-78
2021/04/04 00:51:03;;;;;;;19.47;4.00;;;;;;;;;;5076100;28;20405;-78
2021/04/04 00:53:28;;;;;;;22.37;3.80;;;;;;;;;;5074369;28;20036;-78
2021/04/04 00:55:53;;;;;;;27.37;4.47;;;;;;;;;;5074257;28;20119;-78
2021/04/04 00:58:19;;;;;;;23.53;3.27;;;;;;;;;;5075583;28;20017;-78
2021/04/04 01:00:44;;;;;;;22.57;3.20;;;;;;;;;;5075589;28;20013;-77
2021/04/04 01:03:09;;;;;;;20.10;4.77;;;;;;;;;;5074092;28;20047;-78
2021/04/04 01:05:44;;;;;;;22.73;3.57;;;;;;;;;;5074369;28;20016;-78
2021/04/04 01:08:10;;;;;;;31.93;4.20;;;;;;;;;;5074205;28;20063;-78
2021/04/04 01:10:36;;;;;;;22.17;3.83;;;;;;;;;;5075257;28;20059;-78
2021/04/04 01:13:09;;;;;;;27.67;3.90;;;;;;;;;;5073841;28;20040;-77
2021/04/04 01:15:36;;;;;;;19.80;3.33;;;;;;;;;;5075179;28;20536;-78
2021/04/04 01:18:06;;;;;;;18.07;3.67;;;;;;;;;;5075450;28;20157;-78
2021/04/04 01:20:34;;;;;;;21.90;3.53;;;;;;;;;;5075033;28;20146;-78
2021/04/04 01:23:18;;;;;;;26.57;4.03;;;;;;;;;;5073914;28;20048;-78
2021/04/04 01:25:47;;;;;;;27.43;3.80;;;;;;;;;;5073560;28;20020;-78
2021/04/04 01:28:33;;;;;;;13.17;3.03;;;;;;;;;;5073685;28;20588;-78
2021/04/04 01:30:59;;;;;;;29.00;3.80;;;;;;;;;;5074357;28;20115;-78
2021/04/04 01:33:25;;;;;;;22.33;3.90;;;;;;;;;;5075113;28;20501;-78
2021/04/04 01:35:54;;;;;;;24.70;3.73;;;;;;;;;;5073091;28;20459;-78
2021/04/04 01:38:22;;;;;;;16.60;3.43;;;;;;;;;;5096143;28;20486;-78
2021/04/04 01:40:50;;;;;;;15.37;3.23;;;;;;;;;;5075066;28;20033;-78
2021/04/04 01:43:15;;;;;;;17.30;3.20;;;;;;;;;;5074627;28;20024;-78
2021/04/04 01:45:41;;;;;;;20.67;3.73;;;;;;;;;;5074873;28;20024;-78
2021/04/04 01:48:07;;;;;;;15.83;3.47;;;;;;;;;;5074618;28;20442;-78
2021/04/04 01:50:33;;;;;;;27.40;3.73;;;;;;;;;;5073244;28;20029;-78
2021/04/04 01:52:59;;;;;;;22.27;4.20;;;;;;;;;;5074337;28;20111;-78
2021/04/04 01:55:24;;;;;;;35.87;5.43;;;;;;;;;;5073268;28;20027;-78
2021/04/04 01:57:50;;;;;;;16.30;4.00;;;;;;;;;;5074518;28;20021;-78
2021/04/04 02:00:16;;;;;;;25.00;3.70;;;;;;;;;;5072493;28;20131;-77
2021/04/04 02:02:44;;;;;;;28.93;3.70;;;;;;;;;;5074192;28;20032;-78
2021/04/04 02:05:10;;;;;;;20.97;3.73;;;;;;;;;;5072628;28;20033;-78
2021/04/04 02:07:38;;;;;;;18.90;3.80;;;;;;;;;;5074428;28;20021;-78
2021/04/04 02:10:06;;;;;;;23.97;4.73;;;;;;;;;;5072907;28;20037;-78
2021/04/04 02:12:33;;;;;;;20.17;4.57;;;;;;;;;;5072824;28;20032;-78
2021/04/04 02:14:59;;;;;;;15.67;3.37;;;;;;;;;;5072798;28;20042;-78
2021/04/04 02:17:24;;;;;;;23.97;4.43;;;;;;;;;;5072657;28;20129;-78
2021/04/04 02:19:51;;;;;;;15.53;3.50;;;;;;;;;;5072821;28;20052;-78
2021/04/04 02:22:17;;;;;;;26.20;4.63;;;;;;;;;;5073763;28;20016;-78
2021/04/04 02:24:42;;;;;;;19.17;4.13;;;;;;;;;;5073708;28;20031;-78
2021/04/04 02:27:08;;;;;;;19.70;4.17;;;;;;;;;;5073484;28;20052;-78
2021/04/04 02:29:33;;;;;;;20.87;4.20;;;;;;;;;;5073295;28;20033;-78
2021/04/04 02:32:00;;;;;;;20.00;3.80;;;;;;;;;;5073210;28;20032;-78
2021/04/04 02:34:28;;;;;;;18.40;3.67;;;;;;;;;;5072343;28;20039;-79
2021/04/04 02:36:53;;;;;;;19.53;3.20;;;;;;;;;;5072184;28;20486;-78
2021/04/04 02:39:29;;;;;;;25.07;3.40;;;;;;;;;;5064649;28;20025;-78
2021/04/04 02:41:57;;;;;;;20.53;4.33;;;;;;;;;;5073556;28;20480;-78
2021/04/04 02:44:25;;;;;;;16.23;4.07;;;;;;;;;;5071676;28;20029;-78
2021/04/04 02:46:52;;;;;;;21.27;4.40;;;;;;;;;;5073234;28;20028;-78
2021/04/04 02:49:18;;;;;;;18.33;4.03;;;;;;;;;;5072233;28;20490;-78
2021/04/04 02:51:45;;;;;;;20.70;4.10;;;;;;;;;;5073195;28;20040;-78
2021/04/04 02:54:14;;;;;;;18.93;3.53;;;;;;;;;;5072030;28;20070;-78
2021/04/04 02:56:40;;;;;;;20.30;3.73;;;;;;;;;;5072814;28;20020;-78
2021/04/04 02:59:13;;;;;;;23.73;3.80;;;;;;;;;;5072758;28;20122;-78
2021/04/04 03:01:39;;;;;;;21.35;3.22;;;;;;;;;;5072736;28;20167;-78
2021/04/04 03:04:05;;;;;;;24.73;4.07;;;;;;;;;;5071583;28;20132;-78
2021/04/04 03:06:32;;;;;;;19.53;3.67;;;;;;;;;;5071920;28;20103;-78
2021/04/04 03:08:58;;;;;;;21.00;3.10;;;;;;;;;;5072993;28;20104;-78
2021/04/04 03:11:23;;;;;;;19.10;4.43;;;;;;;;;;5071726;28;20024;-78
2021/04/04 03:13:50;;;;;;;20.43;3.37;;;;;;;;;;5071480;28;20035;-78
2021/04/04 03:16:17;;;;;;;21.03;3.20;;;;;;;;;;5071153;28;20020;-78
2021/04/04 03:18:43;;;;;;;16.43;3.30;;;;;;;;;;5071605;28;20478;-78
2021/04/04 03:21:09;;;;;;;18.00;3.63;;;;;;;;;;5071432;28;20103;-78
2021/04/04 03:23:35;;;;;;;22.27;3.87;;;;;;;;;;5071884;28;20073;-78
2021/04/04 03:26:00;;;;;;;26.43;4.03;;;;;;;;;;5072794;28;20070;-78
2021/04/04 03:28:25;;;;;;;15.53;4.10;;;;;;;;;;5071713;28;20457;-78
2021/04/04 03:30:50;;;;;;;23.27;4.17;;;;;;;;;;5072794;28;20479;-78
2021/04/04 03:33:17;;;;;;;21.03;3.93;;;;;;;;;;5072688;28;20421;-78
2021/04/04 03:35:43;;;;;;;33.13;3.83;;;;;;;;;;5070392;28;20472;-78
2021/04/04 03:38:09;;;;;;;25.90;4.07;;;;;;;;;;5072413;28;20020;-78
2021/04/04 03:40:35;;;;;;;16.27;3.70;;;;;;;;;;5071525;28;20017;-78
2021/04/04 03:43:03;;;;;;;24.40;4.10;;;;;;;;;;5072582;28;20035;-78
2021/04/04 03:45:28;;;;;;;26.33;3.73;;;;;;;;;;5072695;28;20027;-78
2021/04/04 03:47:53;;;;;;;16.23;3.23;;;;;;;;;;5071278;28;20028;-78
2021/04/04 03:50:19;;;;;;;19.93;3.57;;;;;;;;;;5072506;28;20380;-78
2021/04/04 03:52:49;;;;;;;14.73;3.63;;;;;;;;;;5070941;28;20053;-78
2021/04/04 03:55:17;;;;;;;20.53;3.50;;;;;;;;;;5072310;28;20490;-78
2021/04/04 03:57:43;;;;;;;21.73;3.70;;;;;;;;;;5071321;28;20031;-78
2021/04/04 04:00:09;;;;;;;24.03;4.33;;;;;;;;;;5071283;28;20040;-78
2021/04/04 04:02:35;;;;;;;29.80;3.80;;;;;;;;;;5072338;28;20035;-78
2021/04/04 04:05:01;;;;;;;19.27;4.10;;;;;;;;;;5070985;28;20436;-78
2021/04/04 04:07:26;;;;;;;21.90;4.03;;;;;;;;;;5071607;28;20020;-78
2021/04/04 04:09:52;;;;;;;20.30;4.17;;;;;;;;;;5071261;28;20045;-77
2021/04/04 04:12:17;;;;;;;21.67;3.93;;;;;;;;;;5070906;28;20375;-78
2021/04/04 04:14:43;;;;;;;22.30;4.20;;;;;;;;;;5071093;28;20023;-78
2021/04/04 04:17:08;;;;;;;28.67;4.53;;;;;;;;;;5070934;28;20028;-78
2021/04/04 04:19:33;;;;;;;28.37;4.23;;;;;;;;;;5072145;28;20036;-78
2021/04/04 04:21:58;;;;;;;22.33;4.27;;;;;;;;;;5071003;28;20074;-78
2021/04/04 04:24:24;;;;;;;17.27;3.43;;;;;;;;;;5072068;28;20028;-78
2021/04/04 04:26:50;;;;;;;14.73;3.93;;;;;;;;;;5071155;28;20032;-78
2021/04/04 04:29:16;;;;;;;22.30;4.00;;;;;;;;;;5072067;28;20021;-78
2021/04/04 04:31:43;;;;;;;18.60;3.63;;;;;;;;;;5071359;28;20035;-78
2021/04/04 04:34:09;;;;;;;22.03;3.87;;;;;;;;;;5072074;28;20025;-78
2021/04/04 04:36:35;;;;;;;19.20;4.23;;;;;;;;;;5070900;28;20024;-78
2021/04/04 04:39:02;;;;;;;22.37;4.47;;;;;;;;;;5070652;28;20028;-78
2021/04/04 04:41:30;;;;;;;20.83;4.00;;;;;;;;;;5056980;28;20004;-78
2021/04/04 04:43:58;;;;;;;27.73;4.90;;;;;;;;;;5071535;28;20021;-78
2021/04/04 04:46:23;;;;;;;23.10;4.13;;;;;;;;;;5072937;28;20024;-78
2021/04/04 04:48:49;;;;;;;21.60;3.93;;;;;;;;;;5074794;28;20107;-78
2021/04/04 04:51:14;;;;;;;21.63;4.60;;;;;;;;;;5074518;28;20016;-78
2021/04/04 04:53:39;;;;;;;21.90;4.33;;;;;;;;;;5074625;28;20020;-78
2021/04/04 04:56:08;;;;;;;23.57;4.67;;;;;;;;;;5075779;28;20036;-78
2021/04/04 04:58:35;;;;;;;17.83;3.63;;;;;;;;;;5074380;28;20069;-78
2021/04/04 05:01:05;;;;;;;23.73;4.73;;;;;;;;;;5074312;28;20020;-78
2021/04/04 05:03:30;;;;;;;22.60;3.80;;;;;;;;;;5075441;28;20098;-78
2021/04/04 05:06:02;;;;;;;21.17;3.43;;;;;;;;;;5074148;28;20406;-78
2021/04/04 05:08:29;;;;;;;16.10;3.65;;;;;;;;;;5073983;28;20021;-78
2021/04/04 05:10:55;;;;;;;24.80;4.27;;;;;;;;;;5073832;28;20147;-78
2021/04/04 05:13:21;;;;;;;19.50;4.20;;;;;;;;;;5073925;28;20468;-78
2021/04/04 05:15:48;;;;;;;21.83;3.93;;;;;;;;;;5074972;28;20031;-78
2021/04/04 05:18:13;;;;;;;18.30;3.93;;;;;;;;;;5073934;28;20115;-78
2021/04/04 05:20:38;;;;;;;22.23;4.03;;;;;;;;;;5075352;28;20048;-78
2021/04/04 05:23:04;;;;;;;14.33;4.10;;;;;;;;;;5075053;28;20024;-79
2021/04/04 05:25:30;;;;;;;20.00;4.10;;;;;;;;;;5073575;28;20368;-78
2021/04/04 05:27:59;;;;;;;17.63;3.20;;;;;;;;;;5073695;28;20024;-78
2021/04/04 05:30:25;;;;;;;32.80;4.87;;;;;;;;;;5073674;28;20028;-78
2021/04/04 05:32:50;;;;;;;26.40;5.13;;;;;;;;;;5072407;28;20110;-78
2021/04/04 05:35:19;;;;;;;27.57;4.50;;;;;;;;;;5066148;28;20482;-78
2021/04/04 05:37:45;;;;;;;20.50;4.83;;;;;;;;;;5074773;28;20064;-78
2021/04/04 05:40:23;;;;;;;28.47;4.43;;;;;;;;;;5073395;28;20017;-78
2021/04/04 05:42:53;;;;;;;27.60;4.90;;;;;;;;;;5072933;28;20024;-78
2021/04/04 05:45:29;;;;;;;26.30;5.37;;;;;;;;;;5073500;28;20020;-78
2021/04/04 05:48:03;;;;;;;13.87;4.53;;;;;;;;;;5073394;28;20025;-78
2021/04/04 05:50:54;;;;;;;26.57;4.83;;;;;;;;;;5074597;28;20048;-78
2021/04/04 05:53:38;;;;;;;23.93;5.37;;;;;;;;;;5065272;28;20502;-78
2021/04/04 05:56:04;;;;;;;25.43;4.70;;;;;;;;;;5073234;28;20024;-78
2021/04/04 05:58:29;;;;;;;21.97;5.07;;;;;;;;;;5071839;28;20016;-78
2021/04/04 06:00:57;;;;;;;23.53;4.73;;;;;;;;;;5074758;28;20008;-78
2021/04/04 06:03:41;;;;;;;22.73;4.13;;;;;;;;;;5074376;28;20023;-78
2021/04/04 06:06:16;;;;;;;21.63;4.53;;;;;;;;;;5074331;28;20020;-78
2021/04/04 06:08:41;;;;;;;20.93;4.67;;;;;;;;;;5072926;28;20028;-78
2021/04/04 06:11:26;;;;;;;27.93;4.93;;;;;;;;;;5064144;28;20108;-78
2021/04/04 06:14:09;;;;;;;16.87;4.40;;;;;;;;;;5071416;28;20031;-78
2021/04/04 06:16:40;;;;;;;26.03;5.13;;;;;;;;;;5073633;28;20352;-78
2021/04/04 06:19:14;;;;;;;14.40;4.63;;;;;;;;;;5072659;28;20019;-78
2021/04/04 06:21:39;;;;;;;23.30;5.53;;;;;;;;;;5074030;28;20536;-78
2021/04/04 06:24:04;;;;;;;21.33;4.90;;;;;;;;;;5073783;28;20012;-78
2021/04/04 06:26:33;;;;;;;21.47;4.53;;;;;;;;;;5072643;28;20376;-78
2021/04/04 06:29:02;;;;;;;19.27;4.13;;;;;;;;;;5072312;28;20432;-78
2021/04/04 06:31:27;;;;;;;18.33;4.10;;;;;;;;;;5072504;28;20392;-78
2021/04/04 06:34:16;;;;;;;17.33;4.60;;;;;;;;;;5072391;28;20028;-78
2021/04/04 06:36:43;;;;;;;19.90;4.93;;;;;;;;;;5033649;28;20032;-78
2021/04/04 06:39:19;;;;;;;17.23;4.30;;;;;;;;;;5071862;28;20021;-78
2021/04/04 06:41:51;;;;;;;14.47;4.87;;;;;;;;;;5072505;28;20482;-78
2021/04/04 06:44:22;;;;;;;24.38;4.82;;;;;;;;;;5072083;28;20025;-78
2021/04/04 06:47:02;;;;;;;17.47;4.40;;;;;;;;;;5073206;28;20016;-78
2021/04/04 06:49:46;;;;;;;16.93;4.73;;;;;;;;;;5071988;28;20103;-78
2021/04/04 06:52:17;;;;;;;20.70;4.73;;;;;;;;;;5073074;28;20023;-78
2021/04/04 06:54:52;;;;;;;17.20;4.00;;;;;;;;;;5071983;28;20015;-78
2021/04/04 06:57:33;;;;;;;16.13;4.77;;;;;;;;;;5059994;28;20020;-78
2021/04/04 07:00:03;;;;;;;16.90;4.40;;;;;;;;;;5072983;28;20028;-78
2021/04/04 07:02:31;;;;;;;17.40;4.07;;;;;;;;;;5071811;28;20043;-78
2021/04/04 07:05:01;;;;;;;16.87;4.07;;;;;;;;;;5071874;28;20483;-78
2021/04/04 07:07:33;;;;;;;18.50;4.20;;;;;;;;;;5071996;28;20016;-78
2021/04/04 07:10:08;;;;;;;24.00;4.53;;;;;;;;;;5072943;28;20025;-78
2021/04/04 07:12:52;;;;;;;19.70;5.17;;;;;;;;;;5072716;28;20074;-78
2021/04/04 07:15:35;;;;;;;23.60;4.17;;;;;;;;;;5072508;28;20024;-78
2021/04/04 07:18:19;;;;;;;15.67;3.93;;;;;;;;;;5071555;28;20016;-78
2021/04/04 07:21:03;;;;;;;15.70;4.70;;;;;;;;;;5072681;28;20013;-78
2021/04/04 07:23:34;;;;;;;13.33;3.53;;;;;;;;;;5071370;28;20017;-78
2021/04/04 07:26:09;;;;;;;12.97;4.53;;;;;;;;;;5071327;28;20051;-78
2021/04/04 07:28:41;;;;;;;17.47;5.17;;;;;;;;;;5072823;28;20058;-78
2021/04/04 07:31:06;;;;;;;;;;;;;;;;;;5073040;28;20024;-78
2021/04/04 07:33:31;;;;;;;21.77;4.18;;;;;;;;;;5072714;28;19954;-78
2021/04/04 07:35:56;;;;;;;122.67;36.73;;;;;;;;;;5072928;28;20047;-78
2021/04/04 07:38:27;;;;;;;50.37;16.23;;;;;;;;;;5071414;28;20020;-78
2021/04/04 07:40:56;;;;;;;26.23;10.03;;;;;;;;;;5072582;28;20019;-78
2021/04/04 07:43:27;;;;;;;49.67;17.30;;;;;;;;;;5072723;28;20052;-78
2021/04/04 07:45:58;;;;;;;23.63;5.80;;;;;;;;;;5072565;28;20478;-78
2021/04/04 07:48:25;;;;;;;27.97;8.90;;;;;;;;;;5071240;28;20116;-78
2021/04/04 07:51:00;;;;;;;21.47;4.67;;;;;;;;;;5072737;28;20455;-78
2021/04/04 07:53:43;;;;;;;27.03;12.27;;;;;;;;;;5072548;28;20028;-78
2021/04/04 07:56:35;;;;;;;17.53;4.03;;;;;;;;;;5072538;28;20372;-78
2021/04/04 07:59:13;;;;;;;15.30;5.00;;;;;;;;;;5071328;28;20421;-77
2021/04/04 08:01:49;;;;;;;18.87;3.90;;;;;;;;;;5070571;28;20025;-77
2021/04/04 08:04:14;;;;;;;21.93;4.40;;;;;;;;;;5072288;28;20056;-78
2021/04/04 08:06:45;;;;;;;22.90;4.82;;;;;;;;;;5072430;28;20056;-78
2021/04/04 08:09:17;;;;;;;15.43;3.40;;;;;;;;;;5054329;28;20480;-78
2021/04/04 08:11:48;;;;;;;19.53;4.30;;;;;;;;;;5062916;28;20436;-77
2021/04/04 08:14:16;;;;;;;17.10;5.00;;;;;;;;;;5070234;28;20089;-77
2021/04/04 08:16:53;;;;;;;12.23;3.43;;;;;;;;;;5067839;28;20025;-77
2021/04/04 08:19:19;;;;;;;15.53;3.97;;;;;;;;;;5069358;28;20487;-78
2021/04/04 08:22:03;;;;;;;13.13;3.60;;;;;;;;;;5070897;28;20025;-77
2021/04/04 08:24:37;;;;;;;20.80;4.87;;;;;;;;;;5062341;28;20028;-78
2021/04/04 08:27:22;;;;;;;16.13;4.50;;;;;;;;;;5069101;28;20066;-77
2021/04/04 08:29:51;;;;;;;21.40;6.20;;;;;;;;;;5064505;28;20024;-78
2021/04/04 08:32:25;;;;;;;15.10;4.30;;;;;;;;;;5074235;28;20392;-77
2021/04/04 08:34:52;;;;;;;24.90;6.87;;;;;;;;;;5076067;28;20091;-78
2021/04/04 08:37:20;;;;;;;25.67;9.17;;;;;;;;;;5075708;28;20024;-77
2021/04/04 08:39:50;;;;;;;26.93;7.50;;;;;;;;;;5075846;28;20084;-77
2021/04/04 08:42:17;;;;;;;19.47;6.90;;;;;;;;;;5073327;28;20027;-78
2021/04/04 08:44:44;;;;;;;21.00;6.83;;;;;;;;;;5074048;28;20016;-78
2021/04/04 08:47:15;;;;;;;27.50;8.27;;;;;;;;;;5065987;28;20041;-77
2021/04/04 08:49:40;;;;;;;24.63;8.30;;;;;;;;;;5065186;28;20436;-78
2021/04/04 08:52:12;;;;;;;25.17;10.43;;;;;;;;;;5062595;28;20019;-77
2021/04/04 08:54:38;;;;;;;41.40;12.90;;;;;;;;;;5067636;28;20016;-77
2021/04/04 08:57:04;;;;;;;26.93;10.97;;;;;;;;;;5060703;28;20082;-77
2021/04/04 08:59:31;;;;;;;34.63;10.70;;;;;;;;;;5057720;28;20104;-78
2021/04/04 09:02:06;;;;;;;27.40;9.37;;;;;;;;;;5069708;28;20066;-77
2021/04/04 09:04:33;;;;;;;25.53;7.93;;;;;;;;;;5066066;28;20025;-78
2021/04/04 09:07:03;;;;;;;31.97;9.33;;;;;;;;;;5063408;28;20426;-78
2021/04/04 09:09:31;;;;;;;27.30;8.77;;;;;;;;;;5060261;28;20132;-77
2021/04/04 09:11:58;;;;;;;23.27;8.80;;;;;;;;;;5071462;28;20021;-77
2021/04/04 09:14:23;;;;;;;26.60;8.83;;;;;;;;;;5063316;28;20060;-77
2021/04/04 09:16:52;;;;;;;23.50;8.30;;;;;;;;;;5068223;28;20048;-77
2021/04/04 09:19:25;;;;;;;27.10;9.93;;;;;;;;;;5067383;28;20040;-77
2021/04/04 09:21:50;;;;;;;27.60;8.00;;;;;;;;;;5062148;28;20356;-78
2021/04/04 09:24:15;;;;;;;23.27;9.20;;;;;;;;;;5073534;28;20023;-77
2021/04/04 09:26:41;;;;;;;25.20;8.53;;;;;;;;;;5071572;28;20116;-78
2021/04/04 09:29:10;;;;;;;25.17;8.83;;;;;;;;;;5066489;28;20043;-78
2021/04/04 09:31:36;;;;;;;20.53;8.43;;;;;;;;;;5065060;28;20048;-78
2021/04/04 09:34:03;;;;;;;24.57;9.47;;;;;;;;;;5061247;28;20016;-78
2021/04/04 09:36:58;;;;;;;22.93;8.90;;;;;;;;;;5068973;28;20024;-78
2021/04/04 09:39:24;;;;;;;23.73;9.17;;;;;;;;;;5069101;28;20360;-78
2021/04/04 09:41:50;;;;;;;25.02;9.75;;;;;;;;;;5071218;28;20023;-77
2021/04/04 09:44:16;;;;;;;26.70;9.60;;;;;;;;;;5071924;28;20384;-78
2021/04/04 09:46:50;;;;;;;21.07;9.73;;;;;;;;;;5072577;28;20476;-78
2021/04/04 09:49:34;;;;;;;24.55;10.25;;;;;;;;;;5098371;28;20037;-78
2021/04/04 09:52:12;;;;;;;28.00;9.75;;;;;;;;;;5073231;28;20044;-78
2021/04/04 09:54:53;;;;;;;27.40;10.02;;;;;;;;;;5074113;28;20099;-78
2021/04/04 09:57:18;;;;;;;30.83;10.83;;;;;;;;;;5064833;28;20447;-78
2021/04/04 09:59:43;;;;;;;23.40;9.55;;;;;;;;;;5072752;28;20094;-78
2021/04/04 10:02:09;;;;;;;44.37;18.17;;;;;;;;;;5074266;28;20067;-78
2021/04/04 10:04:42;;;;;;;27.23;10.47;;;;;;;;;;5073093;28;20371;-78
2021/04/04 10:07:07;;;;;;;42.43;15.13;;;;;;;;;;5072973;28;20043;-78
2021/04/04 10:09:37;;;;;;;29.20;12.05;;;;;;;;;;5072498;28;20428;-78
2021/04/04 10:12:03;;;;;;;27.00;10.35;;;;;;;;;;5073937;28;20033;-78
2021/04/04 10:14:28;;;;;;;23.67;10.20;;;;;;;;;;5074169;28;20082;-78
2021/04/04 10:17:09;;;;;;;23.42;11.02;;;;;;;;;;5074048;28;20063;-78
2021/04/04 10:19:54;;;;;;;35.40;11.88;;;;;;;;;;5061258;28;20024;-78
2021/04/04 10:22:19;;;;;;;23.83;11.05;;;;;;;;;;5072529;28;20119;-78
2021/04/04 10:24:45;;;;;;;22.08;9.75;;;;;;;;;;5072712;28;20052;-78
2021/04/04 10:27:16;;;;;;;34.13;10.80;;;;;;;;;;5072457;28;20021;-78
2021/04/04 10:29:41;;;;;;;24.70;9.95;;;;;;;;;;5073909;28;20044;-78
2021/04/04 10:32:07;;;;;;;28.33;10.43;;;;;;;;;;5073741;28;20051;-78
2021/04/04 10:34:45;;;;;;;23.67;9.30;;;;;;;;;;5072317;28;20048;-78
2021/04/04 10:37:11;;;;;;;23.67;9.32;;;;;;;;;;5073495;28;20474;-78
2021/04/04 10:39:36;;;;;;;21.45;11.15;;;;;;;;;;5071881;28;20016;-78
2021/04/04 10:42:11;;;;;;;27.27;11.02;;;;;;;;;;5073389;28;20569;-78
2021/04/04 10:44:37;;;;;;;26.55;9.27;;;;;;;;;;5071482;28;20013;-78
2021/04/04 10:47:28;;;;;;;32.72;9.10;;;;;;;;;;5073572;28;20487;-78
2021/04/04 10:49:54;;;;;;;24.10;8.93;;;;;;;;;;5072068;28;20045;-78
2021/04/04 10:52:19;;;;;;;24.98;9.15;;;;;;;;;;5071863;28;20028;-78
2021/04/04 10:54:44;;;;;;;23.45;8.75;;;;;;;;;;5071990;28;20028;-78
2021/04/04 10:57:10;;;;;;;21.88;7.60;;;;;;;;;;5071700;28;20024;-78
2021/04/04 10:59:35;;;;;;;23.15;8.25;;;;;;;;;;5073114;28;20023;-78
2021/04/04 11:02:00;;;;;;;26.45;8.27;;;;;;;;;;5073048;28;20099;-77
2021/04/04 11:04:27;;;;;;;24.05;7.45;;;;;;;;;;5071798;28;20515;-78
2021/04/04 11:06:53;;;;;;;19.73;7.18;;;;;;;;;;5072834;28;20055;-78
2021/04/04 11:09:18;;;;;;;21.30;7.85;;;;;;;;;;5072899;28;20048;-78
2021/04/04 11:11:44;;;;;;;22.25;8.18;;;;;;;;;;5071553;28;20085;-78
2021/04/04 11:14:10;;;;;;;26.98;9.27;;;;;;;;;;5072818;28;20036;-78
2021/04/04 11:16:35;;;;;;;25.63;8.57;;;;;;;;;;5072790;28;20032;-77
2021/04/04 11:19:06;;;;;;;23.42;8.63;;;;;;;;;;5071374;28;20113;-78
2021/04/04 11:21:35;;;;;;;27.02;8.38;;;;;;;;;;5071502;28;20103;-78
2021/04/04 11:24:00;;;;;;;23.10;8.02;;;;;;;;;;5071403;28;20024;-78
2021/04/04 11:26:37;;;;;;;29.58;9.07;;;;;;;;;;5070303;28;20467;-78
2021/04/04 11:29:09;;;;;;;22.20;7.90;;;;;;;;;;5069790;28;20078;-77
2021/04/04 11:31:35;;;;;;;22.48;7.50;;;;;;;;;;5070073;28;20024;-78
2021/04/04 11:34:18;;;;;;;28.57;8.57;;;;;;;;;;5070510;28;20051;-78
2021/04/04 11:36:43;;;;;;;26.40;7.53;;;;;;;;;;5072483;28;20100;-78
2021/04/04 11:39:09;;;;;;;33.83;9.63;;;;;;;;;;5072471;28;20115;-77
2021/04/04 11:41:44;;;;;;;29.00;9.00;;;;;;;;;;5072809;28;20017;-78
2021/04/04 11:44:15;;;;;;;23.53;8.57;;;;;;;;;;5071940;28;20035;-79
2021/04/04 11:46:42;;;;;;;25.40;8.40;;;;;;;;;;5070524;28;20103;-79
2021/04/04 11:49:26;;;;;;;22.75;8.18;;;;;;;;;;5071848;28;20025;-79
2021/04/04 11:51:51;;;;;;;22.48;8.30;;;;;;;;;;5069096;28;20012;-79
2021/04/04 11:54:36;;;;;;;33.43;9.17;;;;;;;;;;5071092;28;20119;-79
2021/04/04 11:57:01;;;;;;;23.67;8.00;;;;;;;;;;5070827;28;20100;-78
2021/04/04 11:59:26;;;;;;;25.02;9.00;;;;;;;;;;5070867;28;20052;-79
2021/04/04 12:01:52;;;;;;;25.33;9.43;;;;;;;;;;5069889;28;20028;-78
2021/04/04 12:04:18;;;;;;;28.92;9.05;;;;;;;;;;5071138;28;20055;-79
2021/04/04 12:06:43;;;;;;;22.33;8.53;;;;;;;;;;5069856;28;20017;-79
2021/04/04 12:09:09;;;;;;;30.20;8.07;;;;;;;;;;5071925;28;20529;-79
2021/04/04 12:11:35;;;;;;;23.88;8.77;;;;;;;;;;5071977;28;20478;-79
2021/04/04 12:14:00;;;;;;;22.20;8.18;;;;;;;;;;5070756;28;20436;-79
2021/04/04 12:16:25;;;;;;;24.25;9.40;;;;;;;;;;5070755;28;20025;-79
2021/04/04 12:19:00;;;;;;;23.13;8.82;;;;;;;;;;5070802;28;20380;-79
2021/04/04 12:21:25;;;;;;;27.25;8.65;;;;;;;;;;5070376;28;20491;-78
2021/04/04 12:23:53;;;;;;;23.23;8.02;;;;;;;;;;5070224;28;20017;-80
2021/04/04 12:26:19;;;;;;;31.80;8.32;;;;;;;;;;5070659;28;20119;-79
2021/04/04 12:28:44;;;;;;;24.08;8.40;;;;;;;;;;5054649;28;20108;-79
2021/04/04 12:31:11;;;;;;;23.67;8.77;;;;;;;;;;5069246;28;20021;-79
2021/04/04 12:33:36;;;;;;;24.40;8.70;;;;;;;;;;5061534;28;20024;-79
2021/04/04 12:36:03;;;;;;;25.85;9.18;;;;;;;;;;5066110;28;20073;-78
2021/04/04 12:38:29;;;;;;;23.70;9.73;;;;;;;;;;5062454;28;20032;-79
2021/04/04 12:40:55;;;;;;;29.02;8.93;;;;;;;;;;5057942;28;20013;-79
2021/04/04 12:43:21;;;;;;;25.10;10.00;;;;;;;;;;5061978;28;20075;-79
2021/04/04 12:45:46;;;;;;;27.45;8.73;;;;;;;;;;5063283;28;20021;-79
2021/04/04 12:48:15;;;;;;;28.42;8.65;;;;;;;;;;5066169;28;20345;-79
2021/04/04 12:50:41;;;;;;;24.05;9.57;;;;;;;;;;5062571;28;20028;-79
2021/04/04 12:53:07;;;;;;;24.55;9.80;;;;;;;;;;5064586;28;20383;-79
2021/04/04 12:55:35;;;;;;;27.70;11.13;;;;;;;;;;5058435;28;20020;-79
2021/04/04 12:58:07;;;;;;;22.77;9.93;;;;;;;;;;5068164;28;20078;-79
2021/04/04 13:00:36;;;;;;;22.60;12.73;;;;;;;;;;5062994;28;20373;-79
2021/04/04 13:03:10;;;;;;;36.97;11.35;;;;;;;;;;5067687;28;20016;-79
2021/04/04 13:05:37;;;;;;;26.10;10.98;;;;;;;;;;5071204;28;20033;-79
2021/04/04 13:08:12;;;;;;;25.80;11.30;;;;;;;;;;5072442;28;20471;-79
2021/04/04 13:10:38;;;;;;;28.33;13.00;;;;;;;;;;5073528;28;20028;-79
2021/04/04 13:13:10;;;;;;;26.27;11.95;;;;;;;;;;5075170;28;20464;-79
2021/04/04 13:15:35;;;;;;;24.33;11.50;;;;;;;;;;5073074;28;20533;-79
2021/04/04 13:18:00;;;;;;;29.45;13.50;;;;;;;;;;5073496;28;20020;-79
2021/04/04 13:20:26;;;;;;;33.85;15.43;;;;;;;;;;5074964;28;20017;-79
2021/04/04 13:22:51;;;;;;;108.55;37.53;;;;;;;;;;5075040;28;20024;-79
2021/04/04 13:25:17;;;;;;;40.95;20.02;;;;;;;;;;5073430;28;20021;-79
2021/04/04 13:27:45;;;;;;;37.95;18.05;;;;;;;;;;5071811;28;20019;-80
2021/04/04 13:30:21;;;;;;;39.10;18.95;;;;;;;;;;5066120;28;20012;-80
2021/04/04 13:32:48;;;;;;;36.85;19.02;;;;;;;;;;5073501;28;20527;-79
2021/04/04 13:35:28;;;;;;;34.92;19.33;;;;;;;;;;5073435;28;20099;-79
2021/04/04 13:37:53;;;;;;;41.50;21.33;;;;;;;;;;5073194;28;20023;-79
2021/04/04 13:40:19;;;;;;;40.47;22.40;;;;;;;;;;5072924;28;20024;-79
2021/04/04 13:42:58;;;;;;;37.97;23.05;;;;;;;;;;5073218;28;20012;-78
2021/04/04 13:45:33;;;;;;;41.83;21.50;;;;;;;;;;5074606;28;20016;-79
2021/04/04 13:47:58;;;;;;;39.53;21.02;;;;;;;;;;5072770;28;20156;-79
2021/04/04 13:50:24;;;;;;;43.40;22.27;;;;;;;;;;5074462;28;20451;-79
2021/04/04 13:52:49;;;;;;;41.72;21.65;;;;;;;;;;5073238;28;20012;-79
2021/04/04 13:55:27;;;;;;;45.47;21.48;;;;;;;;;;5072899;28;20005;-79
2021/04/04 13:57:52;;;;;;;44.58;20.80;;;;;;;;;;5073127;28;20108;-79
2021/04/04 14:00:18;;;;;;;39.80;20.95;;;;;;;;;;5072513;28;20408;-79
2021/04/04 14:02:43;;;;;;;42.97;22.65;;;;;;;;;;5074274;28;20021;-79
2021/04/04 14:05:24;;;;;;;42.72;21.52;;;;;;;;;;5072437;28;20103;-79
2021/04/04 14:07:50;;;;;;;43.22;21.83;;;;;;;;;;5069545;28;20024;-79
2021/04/04 14:10:15;;;;;;;34.83;21.10;;;;;;;;;;5072586;28;20027;-79
2021/04/04 14:12:41;;;;;;;44.17;25.20;;;;;;;;;;5074087;28;20392;-79
2021/04/04 14:15:06;;;;;;;44.80;21.85;;;;;;;;;;5073004;28;20107;-79
2021/04/04 14:17:31;;;;;;;37.72;19.02;;;;;;;;;;5073577;28;20025;-79
2021/04/04 14:19:57;;;;;;;41.15;23.02;;;;;;;;;;5071669;28;20487;-79
2021/04/04 14:22:22;;;;;;;45.55;22.30;;;;;;;;;;5071966;28;20100;-79
2021/04/04 14:24:47;;;;;;;30.73;17.77;;;;;;;;;;5071887;28;20024;-79
2021/04/04 14:27:12;;;;;;;38.33;21.83;;;;;;;;;;5073044;28;20031;-79
2021/04/04 14:29:37;;;;;;;40.17;19.52;;;;;;;;;;5073268;28;20020;-79
2021/04/04 14:32:03;;;;;;;40.67;20.70;;;;;;;;;;5072268;28;20036;-79
2021/04/04 14:34:28;;;;;;;44.75;21.27;;;;;;;;;;5071680;28;20380;-79
2021/04/04 14:36:54;;;;;;;33.70;20.15;;;;;;;;;;5071491;28;20047;-79